sensor_id;sensor_type;location;lat;lon;timestamp;temperature;humidity
18508;DHT22;9383;50.928;12.116;2022-08-19T00:01:49;19.80;99.90
18508;DHT22;9383;50.928;12.116;2022-08-19T00:04:19;19.80;99.90
18508;DHT22;9383;50.928;12.116;2022-08-19T00:06:48;19.80;99.90
18508;DHT22;9383;50.928;12.116;2022-08-19T00:09:17;19.80;99.90
18508;DHT22;9383;50.928;12.116;2022-08-19T00:11:46;19.80;99.90
18508;DHT22;9383;50.928;12.116;2022-08-19T00:14:14;19.80;99.90
18508;DHT22;9383;50.928;12.116;2022-08-19T00:16:44;19.80;99.90
18508;DHT22;9383;50.928;12.116;2022-08-19T00:19:13;19.80;99.90
18508;DHT22;9383;50.928;12.116;2022-08-19T00:21:40;19.80;99.90
18508;DHT22;9383;50.928;12.116;2022-08-19T00:24:09;19.80;99.90
18508;DHT22;9383;50.928;12.116;2022-08-19T00:26:37;19.80;99.90
18508;DHT22;9383;50.928;12.116;2022-08-19T00:29:05;18.70;99.90
18508;DHT22;9383;50.928;12.116;2022-08-19T00:31:33;19.70;99.90
18508;DHT22;9383;50.928;12.116;2022-08-19T00:33:59;19.80;99.90
18508;DHT22;9383;50.928;12.116;2022-08-19T00:36:27;19.70;99.90
18508;DHT22;9383;50.928;12.116;2022-08-19T00:38:54;19.70;99.90
18508;DHT22;9383;50.928;12.116;2022-08-19T00:41:22;19.70;99.90
18508;DHT22;9383;50.928;12.116;2022-08-19T00:44:18;19.60;99.90
18508;DHT22;9383;50.928;12.116;2022-08-19T00:46:49;19.60;99.90
18508;DHT22;9383;50.928;12.116;2022-08-19T00:49:23;19.50;99.90
18508;DHT22;9383;50.928;12.116;2022-08-19T00:52:13;19.50;99.90
18508;DHT22;9383;50.928;12.116;2022-08-19T00:54:43;19.50;99.90
18508;DHT22;9383;50.928;12.116;2022-08-19T00:57:15;19.50;99.90
18508;DHT22;9383;50.928;12.116;2022-08-19T00:59:46;19.50;99.90
18508;DHT22;9383;50.928;12.116;2022-08-19T01:02:17;19.50;99.90
18508;DHT22;9383;50.928;12.116;2022-08-19T01:04:43;19.50;99.90
18508;DHT22;9383;50.928;12.116;2022-08-19T01:07:09;19.60;99.90
18508;DHT22;9383;50.928;12.116;2022-08-19T01:09:35;19.80;99.90
18508;DHT22;9383;50.928;12.116;2022-08-19T01:12:02;19.60;99.90
18508;DHT22;9383;50.928;12.116;2022-08-19T01:14:29;19.60;99.90
18508;DHT22;9383;50.928;12.116;2022-08-19T01:16:57;19.60;99.90
18508;DHT22;9383;50.928;12.116;2022-08-19T01:19:32;19.60;99.90
18508;DHT22;9383;50.928;12.116;2022-08-19T01:24:34;19.50;99.90
18508;DHT22;9383;50.928;12.116;2022-08-19T01:27:04;19.50;99.90
18508;DHT22;9383;50.928;12.116;2022-08-19T01:29:31;19.50;99.90
18508;DHT22;9383;50.928;12.116;2022-08-19T01:31:57;19.40;99.90
18508;DHT22;9383;50.928;12.116;2022-08-19T01:34:25;19.50;99.90
18508;DHT22;9383;50.928;12.116;2022-08-19T01:36:51;19.50;99.90
18508;DHT22;9383;50.928;12.116;2022-08-19T01:39:21;19.40;99.90
18508;DHT22;9383;50.928;12.116;2022-08-19T01:41:50;19.50;99.90
18508;DHT22;9383;50.928;12.116;2022-08-19T01:44:20;19.50;99.90
18508;DHT22;9383;50.928;12.116;2022-08-19T01:46:51;19.40;99.90
18508;DHT22;9383;50.928;12.116;2022-08-19T01:49:21;19.40;99.90
18508;DHT22;9383;50.928;12.116;2022-08-19T01:51:48;19.50;99.90
18508;DHT22;9383;50.928;12.116;2022-08-19T01:54:17;19.40;99.90
18508;DHT22;9383;50.928;12.116;2022-08-19T01:56:44;19.40;99.90
18508;DHT22;9383;50.928;12.116;2022-08-19T01:59:13;19.40;99.90
18508;DHT22;9383;50.928;12.116;2022-08-19T02:01:42;19.40;99.90
18508;DHT22;9383;50.928;12.116;2022-08-19T02:04:08;19.40;99.90
18508;DHT22;9383;50.928;12.116;2022-08-19T02:06:35;19.40;99.90
18508;DHT22;9383;50.928;12.116;2022-08-19T02:09:02;19.40;99.90
18508;DHT22;9383;50.928;12.116;2022-08-19T02:11:34;19.30;99.90
18508;DHT22;9383;50.928;12.116;2022-08-19T02:14:05;19.40;99.90
18508;DHT22;9383;50.928;12.116;2022-08-19T02:16:33;19.40;99.90
18508;DHT22;9383;50.928;12.116;2022-08-19T02:19:00;19.40;99.90
18508;DHT22;9383;50.928;12.116;2022-08-19T02:21:26;19.40;99.90
18508;DHT22;9383;50.928;12.116;2022-08-19T02:23:54;19.40;99.90
18508;DHT22;9383;50.928;12.116;2022-08-19T02:26:21;19.40;99.90
18508;DHT22;9383;50.928;12.116;2022-08-19T02:28:48;19.30;99.90
18508;DHT22;9383;50.928;12.116;2022-08-19T02:31:17;19.30;99.90
18508;DHT22;9383;50.928;12.116;2022-08-19T02:33:46;19.30;99.90
18508;DHT22;9383;50.928;12.116;2022-08-19T02:36:15;19.30;99.90
18508;DHT22;9383;50.928;12.116;2022-08-19T02:38:43;19.40;99.90
18508;DHT22;9383;50.928;12.116;2022-08-19T02:41:16;19.30;99.90
18508;DHT22;9383;50.928;12.116;2022-08-19T02:43:44;19.30;99.90
18508;DHT22;9383;50.928;12.116;2022-08-19T02:46:20;19.40;99.90
18508;DHT22;9383;50.928;12.116;2022-08-19T02:48:53;19.40;99.90
18508;DHT22;9383;50.928;12.116;2022-08-19T02:51:23;19.30;99.90
18508;DHT22;9383;50.928;12.116;2022-08-19T02:53:55;19.30;99.90
18508;DHT22;9383;50.928;12.116;2022-08-19T02:56:22;19.40;99.90
18508;DHT22;9383;50.928;12.116;2022-08-19T02:58:50;19.40;99.90
18508;DHT22;9383;50.928;12.116;2022-08-19T03:01:25;19.40;99.90
18508;DHT22;9383;50.928;12.116;2022-08-19T03:03:55;19.50;99.90
18508;DHT22;9383;50.928;12.116;2022-08-19T03:06:23;19.50;99.90
18508;DHT22;9383;50.928;12.116;2022-08-19T03:08:49;19.50;99.90
18508;DHT22;9383;50.928;12.116;2022-08-19T03:11:17;19.50;99.90
18508;DHT22;9383;50.928;12.116;2022-08-19T03:13:45;19.50;99.90
18508;DHT22;9383;50.928;12.116;2022-08-19T03:16:12;19.60;99.90
18508;DHT22;9383;50.928;12.116;2022-08-19T03:18:38;19.50;99.90
18508;DHT22;9383;50.928;12.116;2022-08-19T03:21:05;19.60;99.90
18508;DHT22;9383;50.928;12.116;2022-08-19T03:23:32;19.60;99.90
18508;DHT22;9383;50.928;12.116;2022-08-19T03:26:02;19.60;99.90
18508;DHT22;9383;50.928;12.116;2022-08-19T03:28:30;19.60;99.90
18508;DHT22;9383;50.928;12.116;2022-08-19T03:31:00;19.60;99.90
18508;DHT22;9383;50.928;12.116;2022-08-19T03:33:30;19.60;99.90
18508;DHT22;9383;50.928;12.116;2022-08-19T03:36:12;19.60;99.90
18508;DHT22;9383;50.928;12.116;2022-08-19T03:38:46;19.60;99.90
18508;DHT22;9383;50.928;12.116;2022-08-19T03:41:18;19.60;99.90
18508;DHT22;9383;50.928;12.116;2022-08-19T03:43:47;19.70;99.90
18508;DHT22;9383;50.928;12.116;2022-08-19T03:46:16;19.60;99.90
18508;DHT22;9383;50.928;12.116;2022-08-19T03:48:48;19.70;99.90
18508;DHT22;9383;50.928;12.116;2022-08-19T03:51:34;19.70;99.90
18508;DHT22;9383;50.928;12.116;2022-08-19T03:54:05;19.70;99.90
18508;DHT22;9383;50.928;12.116;2022-08-19T03:56:34;19.70;99.90
18508;DHT22;9383;50.928;12.116;2022-08-19T03:59:04;19.70;99.90
18508;DHT22;9383;50.928;12.116;2022-08-19T04:01:34;19.70;99.90
18508;DHT22;9383;50.928;12.116;2022-08-19T04:04:01;19.70;99.90
18508;DHT22;9383;50.928;12.116;2022-08-19T04:06:32;19.70;99.90
18508;DHT22;9383;50.928;12.116;2022-08-19T04:09:03;19.40;99.90
18508;DHT22;9383;50.928;12.116;2022-08-19T04:11:36;19.70;99.90
18508;DHT22;9383;50.928;12.116;2022-08-19T04:14:09;19.70;99.90
18508;DHT22;9383;50.928;12.116;2022-08-19T04:16:41;19.70;99.90
18508;DHT22;9383;50.928;12.116;2022-08-19T04:19:09;19.70;99.90
18508;DHT22;9383;50.928;12.116;2022-08-19T04:21:36;19.70;99.90
18508;DHT22;9383;50.928;12.116;2022-08-19T04:24:18;19.70;99.90
18508;DHT22;9383;50.928;12.116;2022-08-19T04:26:45;19.70;99.90
18508;DHT22;9383;50.928;12.116;2022-08-19T04:29:17;19.70;99.90
18508;DHT22;9383;50.928;12.116;2022-08-19T04:31:47;19.70;99.90
18508;DHT22;9383;50.928;12.116;2022-08-19T04:34:17;19.70;99.90
18508;DHT22;9383;50.928;12.116;2022-08-19T04:36:48;19.70;99.90
18508;DHT22;9383;50.928;12.116;2022-08-19T04:39:20;19.70;99.90
18508;DHT22;9383;50.928;12.116;2022-08-19T04:41:48;19.70;99.90
18508;DHT22;9383;50.928;12.116;2022-08-19T04:44:35;19.70;99.90
18508;DHT22;9383;50.928;12.116;2022-08-19T04:47:02;19.70;99.90
18508;DHT22;9383;50.928;12.116;2022-08-19T04:49:31;19.70;99.90
18508;DHT22;9383;50.928;12.116;2022-08-19T04:51:57;19.70;99.90
18508;DHT22;9383;50.928;12.116;2022-08-19T04:54:24;19.70;99.90
18508;DHT22;9383;50.928;12.116;2022-08-19T04:56:54;19.70;99.90
18508;DHT22;9383;50.928;12.116;2022-08-19T04:59:20;19.70;99.90
18508;DHT22;9383;50.928;12.116;2022-08-19T05:01:47;19.70;99.90
18508;DHT22;9383;50.928;12.116;2022-08-19T05:04:17;19.70;99.90
18508;DHT22;9383;50.928;12.116;2022-08-19T05:06:47;19.70;99.90
18508;DHT22;9383;50.928;12.116;2022-08-19T05:09:15;19.70;99.90
18508;DHT22;9383;50.928;12.116;2022-08-19T05:11:42;19.70;99.90
18508;DHT22;9383;50.928;12.116;2022-08-19T05:14:10;19.70;99.90
18508;DHT22;9383;50.928;12.116;2022-08-19T05:16:39;19.70;99.90
18508;DHT22;9383;50.928;12.116;2022-08-19T05:19:06;19.70;99.90
18508;DHT22;9383;50.928;12.116;2022-08-19T05:21:51;19.70;99.90
18508;DHT22;9383;50.928;12.116;2022-08-19T05:24:36;19.70;99.90
18508;DHT22;9383;50.928;12.116;2022-08-19T05:27:03;19.70;99.90
18508;DHT22;9383;50.928;12.116;2022-08-19T05:29:32;19.70;99.90
18508;DHT22;9383;50.928;12.116;2022-08-19T05:32:01;19.70;99.90
18508;DHT22;9383;50.928;12.116;2022-08-19T05:34:31;19.60;99.90
18508;DHT22;9383;50.928;12.116;2022-08-19T05:36:59;19.60;99.90
18508;DHT22;9383;50.928;12.116;2022-08-19T05:39:28;19.60;99.90
18508;DHT22;9383;50.928;12.116;2022-08-19T05:41:58;19.70;99.90
18508;DHT22;9383;50.928;12.116;2022-08-19T05:44:40;19.70;99.90
18508;DHT22;9383;50.928;12.116;2022-08-19T05:47:13;19.70;99.90
18508;DHT22;9383;50.928;12.116;2022-08-19T05:49:41;19.70;99.90
18508;DHT22;9383;50.928;12.116;2022-08-19T05:52:09;19.70;99.90
18508;DHT22;9383;50.928;12.116;2022-08-19T05:54:39;19.70;99.90
18508;DHT22;9383;50.928;12.116;2022-08-19T05:57:07;19.70;99.90
18508;DHT22;9383;50.928;12.116;2022-08-19T05:59:35;19.70;99.90
18508;DHT22;9383;50.928;12.116;2022-08-19T06:02:02;19.70;99.90
18508;DHT22;9383;50.928;12.116;2022-08-19T06:04:30;19.70;99.90
18508;DHT22;9383;50.928;12.116;2022-08-19T06:06:56;19.70;99.90
18508;DHT22;9383;50.928;12.116;2022-08-19T06:09:23;19.70;99.90
18508;DHT22;9383;50.928;12.116;2022-08-19T06:11:56;19.80;99.90
18508;DHT22;9383;50.928;12.116;2022-08-19T06:14:31;19.80;99.90
18508;DHT22;9383;50.928;12.116;2022-08-19T06:17:00;19.80;99.90
18508;DHT22;9383;50.928;12.116;2022-08-19T06:19:28;19.80;99.90
18508;DHT22;9383;50.928;12.116;2022-08-19T06:21:56;19.80;99.90
18508;DHT22;9383;50.928;12.116;2022-08-19T06:24:25;19.80;99.90
18508;DHT22;9383;50.928;12.116;2022-08-19T06:26:54;19.80;99.90
18508;DHT22;9383;50.928;12.116;2022-08-19T06:29:24;19.90;99.90
18508;DHT22;9383;50.928;12.116;2022-08-19T06:31:53;19.90;99.90
18508;DHT22;9383;50.928;12.116;2022-08-19T06:34:22;19.70;99.90
18508;DHT22;9383;50.928;12.116;2022-08-19T06:36:51;19.90;99.90
18508;DHT22;9383;50.928;12.116;2022-08-19T06:39:24;19.90;99.90
18508;DHT22;9383;50.928;12.116;2022-08-19T06:41:56;19.90;99.90
18508;DHT22;9383;50.928;12.116;2022-08-19T06:44:27;19.90;99.90
18508;DHT22;9383;50.928;12.116;2022-08-19T06:46:55;20.00;99.90
18508;DHT22;9383;50.928;12.116;2022-08-19T06:49:23;19.90;99.90
18508;DHT22;9383;50.928;12.116;2022-08-19T06:51:49;20.00;99.90
18508;DHT22;9383;50.928;12.116;2022-08-19T06:54:17;20.00;99.90
18508;DHT22;9383;50.928;12.116;2022-08-19T06:56:44;19.90;99.90
18508;DHT22;9383;50.928;12.116;2022-08-19T06:59:14;20.00;99.90
18508;DHT22;9383;50.928;12.116;2022-08-19T07:01:46;20.00;99.90
18508;DHT22;9383;50.928;12.116;2022-08-19T07:04:18;20.00;99.90
18508;DHT22;9383;50.928;12.116;2022-08-19T07:06:46;19.90;99.90
18508;DHT22;9383;50.928;12.116;2022-08-19T07:09:16;19.90;99.90
18508;DHT22;9383;50.928;12.116;2022-08-19T07:11:48;19.90;99.90
18508;DHT22;9383;50.928;12.116;2022-08-19T07:14:18;19.90;99.90
18508;DHT22;9383;50.928;12.116;2022-08-19T07:16:48;19.90;99.90
18508;DHT22;9383;50.928;12.116;2022-08-19T07:19:17;19.90;99.90
18508;DHT22;9383;50.928;12.116;2022-08-19T07:21:46;20.00;99.90
18508;DHT22;9383;50.928;12.116;2022-08-19T07:24:13;19.90;99.90
18508;DHT22;9383;50.928;12.116;2022-08-19T07:26:42;19.90;99.90
18508;DHT22;9383;50.928;12.116;2022-08-19T07:29:11;19.80;99.90
18508;DHT22;9383;50.928;12.116;2022-08-19T07:31:38;19.80;99.90
18508;DHT22;9383;50.928;12.116;2022-08-19T07:34:10;19.80;99.90
18508;DHT22;9383;50.928;12.116;2022-08-19T07:36:39;19.80;99.90
18508;DHT22;9383;50.928;12.116;2022-08-19T07:39:13;19.90;99.90
18508;DHT22;9383;50.928;12.116;2022-08-19T07:41:46;19.80;99.90
18508;DHT22;9383;50.928;12.116;2022-08-19T07:44:14;19.80;99.90
18508;DHT22;9383;50.928;12.116;2022-08-19T07:46:45;19.20;99.90
18508;DHT22;9383;50.928;12.116;2022-08-19T07:49:13;19.70;99.90
18508;DHT22;9383;50.928;12.116;2022-08-19T07:51:50;19.70;99.90
18508;DHT22;9383;50.928;12.116;2022-08-19T07:54:20;19.70;99.90
18508;DHT22;9383;50.928;12.116;2022-08-19T07:56:49;19.70;99.90
18508;DHT22;9383;50.928;12.116;2022-08-19T07:59:17;19.70;99.90
18508;DHT22;9383;50.928;12.116;2022-08-19T08:01:45;19.80;99.90
18508;DHT22;9383;50.928;12.116;2022-08-19T08:04:11;19.70;99.90
18508;DHT22;9383;50.928;12.116;2022-08-19T08:06:56;19.80;99.90
18508;DHT22;9383;50.928;12.116;2022-08-19T08:09:42;19.80;99.90
18508;DHT22;9383;50.928;12.116;2022-08-19T08:12:21;20.80;99.90
18508;DHT22;9383;50.928;12.116;2022-08-19T08:14:53;19.80;99.90
18508;DHT22;9383;50.928;12.116;2022-08-19T08:17:24;19.70;99.90
18508;DHT22;9383;50.928;12.116;2022-08-19T08:19:52;19.70;99.90
18508;DHT22;9383;50.928;12.116;2022-08-19T08:22:21;19.70;99.90
18508;DHT22;9383;50.928;12.116;2022-08-19T08:25:14;19.80;99.90
18508;DHT22;9383;50.928;12.116;2022-08-19T08:27:45;19.80;99.90
18508;DHT22;9383;50.928;12.116;2022-08-19T08:30:16;19.80;99.90
18508;DHT22;9383;50.928;12.116;2022-08-19T08:32:45;19.80;99.90
18508;DHT22;9383;50.928;12.116;2022-08-19T08:35:14;19.70;99.90
18508;DHT22;9383;50.928;12.116;2022-08-19T08:37:43;19.70;99.90
18508;DHT22;9383;50.928;12.116;2022-08-19T08:43:27;19.80;99.90
18508;DHT22;9383;50.928;12.116;2022-08-19T08:46:12;19.80;99.90
18508;DHT22;9383;50.928;12.116;2022-08-19T08:51:37;19.80;99.90
18508;DHT22;9383;50.928;12.116;2022-08-19T08:54:11;19.80;99.90
18508;DHT22;9383;50.928;12.116;2022-08-19T08:56:41;19.80;99.90
18508;DHT22;9383;50.928;12.116;2022-08-19T08:59:41;19.80;99.90
18508;DHT22;9383;50.928;12.116;2022-08-19T09:02:10;19.70;99.90
18508;DHT22;9383;50.928;12.116;2022-08-19T09:04:37;19.70;99.90
18508;DHT22;9383;50.928;12.116;2022-08-19T09:07:20;19.80;99.90
18508;DHT22;9383;50.928;12.116;2022-08-19T09:09:51;19.70;99.90
18508;DHT22;9383;50.928;12.116;2022-08-19T09:15:37;19.70;99.90
18508;DHT22;9383;50.928;12.116;2022-08-19T09:18:08;19.70;99.90
18508;DHT22;9383;50.928;12.116;2022-08-19T09:20:34;19.60;99.90
18508;DHT22;9383;50.928;12.116;2022-08-19T09:23:00;19.60;99.90
18508;DHT22;9383;50.928;12.116;2022-08-19T09:25:27;19.60;99.90
18508;DHT22;9383;50.928;12.116;2022-08-19T09:27:54;19.50;99.90
18508;DHT22;9383;50.928;12.116;2022-08-19T09:30:27;19.60;99.90
18508;DHT22;9383;50.928;12.116;2022-08-19T09:32:55;19.60;99.90
18508;DHT22;9383;50.928;12.116;2022-08-19T09:35:23;19.50;99.90
18508;DHT22;9383;50.928;12.116;2022-08-19T09:40:19;19.50;99.90
18508;DHT22;9383;50.928;12.116;2022-08-19T09:42:46;19.50;99.90
18508;DHT22;9383;50.928;12.116;2022-08-19T09:45:14;19.50;99.90
18508;DHT22;9383;50.928;12.116;2022-08-19T09:47:43;19.50;99.90
18508;DHT22;9383;50.928;12.116;2022-08-19T09:50:12;19.40;99.90
18508;DHT22;9383;50.928;12.116;2022-08-19T09:52:39;19.40;99.90
18508;DHT22;9383;50.928;12.116;2022-08-19T09:55:08;19.30;99.90
18508;DHT22;9383;50.928;12.116;2022-08-19T09:57:35;19.30;99.90
18508;DHT22;9383;50.928;12.116;2022-08-19T10:00:04;19.30;99.90
18508;DHT22;9383;50.928;12.116;2022-08-19T10:07:45;18.30;99.90
18508;DHT22;9383;50.928;12.116;2022-08-19T10:10:11;19.20;99.90
18508;DHT22;9383;50.928;12.116;2022-08-19T10:15:06;20.30;99.90
18508;DHT22;9383;50.928;12.116;2022-08-19T10:17:33;19.20;99.90
18508;DHT22;9383;50.928;12.116;2022-08-19T10:20:01;19.30;99.90
18508;DHT22;9383;50.928;12.116;2022-08-19T10:22:30;19.20;99.90
18508;DHT22;9383;50.928;12.116;2022-08-19T10:24:56;19.30;99.90
18508;DHT22;9383;50.928;12.116;2022-08-19T10:27:22;19.20;99.90
18508;DHT22;9383;50.928;12.116;2022-08-19T10:29:48;19.30;99.90
18508;DHT22;9383;50.928;12.116;2022-08-19T10:32:15;19.30;99.90
18508;DHT22;9383;50.928;12.116;2022-08-19T10:39:36;19.40;99.90
18508;DHT22;9383;50.928;12.116;2022-08-19T10:42:07;19.40;99.90
18508;DHT22;9383;50.928;12.116;2022-08-19T10:44:36;19.40;99.90
18508;DHT22;9383;50.928;12.116;2022-08-19T10:47:03;19.30;99.90
18508;DHT22;9383;50.928;12.116;2022-08-19T10:49:30;19.50;99.90
18508;DHT22;9383;50.928;12.116;2022-08-19T10:54:41;19.60;99.90
18508;DHT22;9383;50.928;12.116;2022-08-19T10:57:25;19.60;99.90
18508;DHT22;9383;50.928;12.116;2022-08-19T10:59:56;19.60;99.90
18508;DHT22;9383;50.928;12.116;2022-08-19T11:02:23;19.50;99.60
18508;DHT22;9383;50.928;12.116;2022-08-19T11:04:49;19.50;99.30
18508;DHT22;9383;50.928;12.116;2022-08-19T11:07:17;19.50;99.30
18508;DHT22;9383;50.928;12.116;2022-08-19T11:09:43;19.50;99.40
18508;DHT22;9383;50.928;12.116;2022-08-19T11:12:12;19.50;99.50
18508;DHT22;9383;50.928;12.116;2022-08-19T11:14:38;19.60;99.40
18508;DHT22;9383;50.928;12.116;2022-08-19T11:17:05;19.50;99.00
18508;DHT22;9383;50.928;12.116;2022-08-19T11:19:35;19.50;99.00
18508;DHT22;9383;50.928;12.116;2022-08-19T11:22:02;19.50;98.40
18508;DHT22;9383;50.928;12.116;2022-08-19T11:24:30;19.40;98.80
18508;DHT22;9383;50.928;12.116;2022-08-19T11:27:02;19.90;99.00
18508;DHT22;9383;50.928;12.116;2022-08-19T11:29:37;19.40;98.90
18508;DHT22;9383;50.928;12.116;2022-08-19T11:32:06;19.40;98.80
18508;DHT22;9383;50.928;12.116;2022-08-19T11:34:35;19.40;99.00
18508;DHT22;9383;50.928;12.116;2022-08-19T11:37:03;19.40;98.70
18508;DHT22;9383;50.928;12.116;2022-08-19T11:39:31;19.40;99.00
18508;DHT22;9383;50.928;12.116;2022-08-19T11:42:00;19.50;99.00
18508;DHT22;9383;50.928;12.116;2022-08-19T11:46:56;19.50;98.80
18508;DHT22;9383;50.928;12.116;2022-08-19T11:49:23;19.50;99.10
18508;DHT22;9383;50.928;12.116;2022-08-19T11:51:55;19.60;99.10
18508;DHT22;9383;50.928;12.116;2022-08-19T11:54:21;19.60;99.40
18508;DHT22;9383;50.928;12.116;2022-08-19T11:56:48;19.70;99.60
18508;DHT22;9383;50.928;12.116;2022-08-19T11:59:14;19.70;99.70
18508;DHT22;9383;50.928;12.116;2022-08-19T12:01:41;19.70;99.70
18508;DHT22;9383;50.928;12.116;2022-08-19T12:04:09;19.80;99.70
18508;DHT22;9383;50.928;12.116;2022-08-19T12:06:39;19.80;99.60
18508;DHT22;9383;50.928;12.116;2022-08-19T12:09:08;19.90;99.60
18508;DHT22;9383;50.928;12.116;2022-08-19T12:11:36;19.90;99.50
18508;DHT22;9383;50.928;12.116;2022-08-19T12:14:04;19.90;99.60
18508;DHT22;9383;50.928;12.116;2022-08-19T12:18:58;20.00;99.40
18508;DHT22;9383;50.928;12.116;2022-08-19T12:21:30;20.10;99.60
18508;DHT22;9383;50.928;12.116;2022-08-19T12:23:59;20.10;99.70
18508;DHT22;9383;50.928;12.116;2022-08-19T12:26:27;20.20;99.70
18508;DHT22;9383;50.928;12.116;2022-08-19T12:28:55;20.20;99.40
18508;DHT22;9383;50.928;12.116;2022-08-19T12:31:21;20.30;99.30
18508;DHT22;9383;50.928;12.116;2022-08-19T12:33:47;20.30;98.60
18508;DHT22;9383;50.928;12.116;2022-08-19T12:36:15;20.30;98.50
18508;DHT22;9383;50.928;12.116;2022-08-19T12:38:43;20.30;98.70
18508;DHT22;9383;50.928;12.116;2022-08-19T12:41:14;20.30;98.70
18508;DHT22;9383;50.928;12.116;2022-08-19T12:43:43;20.30;98.80
18508;DHT22;9383;50.928;12.116;2022-08-19T12:46:11;20.20;98.90
18508;DHT22;9383;50.928;12.116;2022-08-19T12:48:38;20.30;98.90
18508;DHT22;9383;50.928;12.116;2022-08-19T12:51:09;20.30;98.90
18508;DHT22;9383;50.928;12.116;2022-08-19T12:53:38;20.40;98.90
18508;DHT22;9383;50.928;12.116;2022-08-19T12:56:05;20.30;98.90
18508;DHT22;9383;50.928;12.116;2022-08-19T12:58:32;20.40;98.90
18508;DHT22;9383;50.928;12.116;2022-08-19T13:01:07;20.40;98.60
18508;DHT22;9383;50.928;12.116;2022-08-19T13:03:37;20.50;98.80
18508;DHT22;9383;50.928;12.116;2022-08-19T13:06:04;20.50;98.70
18508;DHT22;9383;50.928;12.116;2022-08-19T13:10:57;20.60;98.50
18508;DHT22;9383;50.928;12.116;2022-08-19T13:16:02;20.70;98.10
18508;DHT22;9383;50.928;12.116;2022-08-19T13:18:29;20.70;97.70
18508;DHT22;9383;50.928;12.116;2022-08-19T13:20:55;20.60;97.70
18508;DHT22;9383;50.928;12.116;2022-08-19T13:23:22;20.70;97.90
18508;DHT22;9383;50.928;12.116;2022-08-19T13:26:04;20.60;97.70
18508;DHT22;9383;50.928;12.116;2022-08-19T13:28:32;20.70;97.90
18508;DHT22;9383;50.928;12.116;2022-08-19T13:31:19;20.70;97.80
18508;DHT22;9383;50.928;12.116;2022-08-19T13:34:05;20.70;97.70
18508;DHT22;9383;50.928;12.116;2022-08-19T13:36:33;20.70;97.60
18508;DHT22;9383;50.928;12.116;2022-08-19T13:39:00;20.80;97.60
18508;DHT22;9383;50.928;12.116;2022-08-19T13:43:54;20.80;97.10
18508;DHT22;9383;50.928;12.116;2022-08-19T13:51:15;20.70;96.90
18508;DHT22;9383;50.928;12.116;2022-08-19T13:53:43;20.70;97.00
18508;DHT22;9383;50.928;12.116;2022-08-19T13:56:13;20.60;96.70
18508;DHT22;9383;50.928;12.116;2022-08-19T13:58:41;20.70;96.80
18508;DHT22;9383;50.928;12.116;2022-08-19T14:01:08;20.50;96.80
18508;DHT22;9383;50.928;12.116;2022-08-19T14:03:36;20.50;96.70
18508;DHT22;9383;50.928;12.116;2022-08-19T14:06:03;20.50;96.80
18508;DHT22;9383;50.928;12.116;2022-08-19T14:20:45;20.60;96.60
18508;DHT22;9383;50.928;12.116;2022-08-19T14:23:12;20.60;96.80
18508;DHT22;9383;50.928;12.116;2022-08-19T14:25:39;20.60;96.70
18508;DHT22;9383;50.928;12.116;2022-08-19T14:28:05;20.60;96.70
18508;DHT22;9383;50.928;12.116;2022-08-19T14:30:35;20.70;97.00
18508;DHT22;9383;50.928;12.116;2022-08-19T14:33:04;20.70;97.20
18508;DHT22;9383;50.928;12.116;2022-08-19T14:35:33;20.70;97.10
18508;DHT22;9383;50.928;12.116;2022-08-19T14:38:04;20.70;97.30
18508;DHT22;9383;50.928;12.116;2022-08-19T14:40:32;20.70;97.40
18508;DHT22;9383;50.928;12.116;2022-08-19T14:43:01;20.70;97.20
18508;DHT22;9383;50.928;12.116;2022-08-19T14:45:32;20.80;97.40
18508;DHT22;9383;50.928;12.116;2022-08-19T14:52:59;20.70;97.10
18508;DHT22;9383;50.928;12.116;2022-08-19T15:02:50;20.70;96.60
18508;DHT22;9383;50.928;12.116;2022-08-19T15:05:17;20.60;96.60
18508;DHT22;9383;50.928;12.116;2022-08-19T15:07:44;20.60;96.80
18508;DHT22;9383;50.928;12.116;2022-08-19T15:10:13;20.60;97.10
18508;DHT22;9383;50.928;12.116;2022-08-19T15:12:41;20.60;97.20
18508;DHT22;9383;50.928;12.116;2022-08-19T15:15:13;20.60;97.30
18508;DHT22;9383;50.928;12.116;2022-08-19T15:17:41;20.50;97.30
18508;DHT22;9383;50.928;12.116;2022-08-19T15:28:25;20.50;97.30
18508;DHT22;9383;50.928;12.116;2022-08-19T15:30:52;20.40;97.30
18508;DHT22;9383;50.928;12.116;2022-08-19T15:33:19;20.40;97.20
18508;DHT22;9383;50.928;12.116;2022-08-19T15:35:47;20.40;97.20
18508;DHT22;9383;50.928;12.116;2022-08-19T15:38:17;20.30;97.20
18508;DHT22;9383;50.928;12.116;2022-08-19T15:40:48;20.30;97.30
18508;DHT22;9383;50.928;12.116;2022-08-19T15:43:17;20.30;97.40
18508;DHT22;9383;50.928;12.116;2022-08-19T15:45:45;20.30;97.40
18508;DHT22;9383;50.928;12.116;2022-08-19T15:48:11;20.40;97.40
18508;DHT22;9383;50.928;12.116;2022-08-19T15:50:37;20.40;97.40
18508;DHT22;9383;50.928;12.116;2022-08-19T15:53:08;20.40;97.40
18508;DHT22;9383;50.928;12.116;2022-08-19T15:55:42;20.30;97.30
18508;DHT22;9383;50.928;12.116;2022-08-19T15:58:12;20.40;97.20
18508;DHT22;9383;50.928;12.116;2022-08-19T16:00:59;20.40;97.10
18508;DHT22;9383;50.928;12.116;2022-08-19T16:03:46;20.40;96.90
18508;DHT22;9383;50.928;12.116;2022-08-19T16:06:32;20.40;96.70
18508;DHT22;9383;50.928;12.116;2022-08-19T16:09:00;20.40;96.80
18508;DHT22;9383;50.928;12.116;2022-08-19T16:11:31;20.20;96.80
18508;DHT22;9383;50.928;12.116;2022-08-19T16:14:00;20.30;96.80
18508;DHT22;9383;50.928;12.116;2022-08-19T16:16:30;20.30;96.80
18508;DHT22;9383;50.928;12.116;2022-08-19T16:19:01;20.30;96.80
18508;DHT22;9383;50.928;12.116;2022-08-19T16:21:29;20.30;96.70
18508;DHT22;9383;50.928;12.116;2022-08-19T16:24:00;20.30;96.70
18508;DHT22;9383;50.928;12.116;2022-08-19T16:26:28;20.30;96.60
18508;DHT22;9383;50.928;12.116;2022-08-19T16:29:00;20.30;96.70
18508;DHT22;9383;50.928;12.116;2022-08-19T16:31:27;20.30;96.60
18508;DHT22;9383;50.928;12.116;2022-08-19T16:33:54;20.30;96.50
18508;DHT22;9383;50.928;12.116;2022-08-19T16:36:20;20.30;96.30
18508;DHT22;9383;50.928;12.116;2022-08-19T16:38:52;20.30;96.30
18508;DHT22;9383;50.928;12.116;2022-08-19T16:41:19;20.30;96.30
18508;DHT22;9383;50.928;12.116;2022-08-19T16:43:47;20.20;96.00
18508;DHT22;9383;50.928;12.116;2022-08-19T16:46:19;20.20;95.90
18508;DHT22;9383;50.928;12.116;2022-08-19T16:48:46;20.20;95.70
18508;DHT22;9383;50.928;12.116;2022-08-19T16:51:13;20.10;95.70
18508;DHT22;9383;50.928;12.116;2022-08-19T16:53:41;20.10;95.80
18508;DHT22;9383;50.928;12.116;2022-08-19T16:56:10;20.20;95.80
18508;DHT22;9383;50.928;12.116;2022-08-19T16:58:37;20.10;95.80
18508;DHT22;9383;50.928;12.116;2022-08-19T17:01:06;20.10;95.80
18508;DHT22;9383;50.928;12.116;2022-08-19T17:03:35;20.10;95.90
18508;DHT22;9383;50.928;12.116;2022-08-19T17:06:07;20.10;95.90